createdAt,value
2023-04-01T00:01:03.058Z,99399.19
2023-04-01T00:03:30.509Z,99394.81
2023-04-01T00:05:58.388Z,99392.28
2023-04-01T00:08:26.089Z,99387.03
2023-04-01T00:10:53.106Z,99397.59
2023-04-01T00:13:20.592Z,99398.78
2023-04-01T00:15:47.683Z,99396.91
2023-04-01T00:18:14.721Z,99395.03
2023-04-01T00:20:48.711Z,99402.91
2023-04-01T00:23:16.048Z,99402.16
2023-04-01T00:25:43.176Z,99395.97
2023-04-01T00:28:09.589Z,99400.47
2023-04-01T00:30:37.834Z,99395.31
2023-04-01T00:33:04.952Z,99402.16
2023-04-01T00:35:31.653Z,99399.63
2023-04-01T00:37:58.263Z,99397.09
2023-04-01T00:40:29.138Z,99400.56
2023-04-01T00:42:55.846Z,99402.34
2023-04-01T00:45:37.395Z,99404.13
2023-04-01T00:48:09.732Z,99402.44
2023-04-01T00:50:37.775Z,99396.41
2023-04-01T00:53:06.394Z,99396.41
2023-04-01T00:55:36.496Z,99395.56
2023-04-01T00:58:06.577Z,99393.03
2023-04-01T01:00:34.043Z,99400.03
2023-04-01T01:03:01.533Z,99408.00
2023-04-01T01:05:48.533Z,99405.47
2023-04-01T01:08:38.474Z,99402.09
2023-04-01T01:11:09.158Z,99403.00
2023-04-01T01:13:45.783Z,99407.38
2023-04-01T01:16:28.074Z,99405.72
2023-04-01T01:19:06.290Z,99406.56
2023-04-01T01:22:04.060Z,99404.88
2023-04-01T01:24:53.753Z,99403.94
2023-04-01T01:27:23.162Z,99401.41
2023-04-01T01:30:11.514Z,99405.78
2023-04-01T01:32:54.548Z,99406.72
2023-04-01T01:35:28.072Z,99401.56
2023-04-01T01:38:04.534Z,99411.13
2023-04-01T01:40:34.182Z,99412.06
2023-04-01T01:43:07.598Z,99407.75
2023-04-01T01:45:37.677Z,99404.28
2023-04-01T01:48:06.302Z,99409.53
2023-04-01T01:50:33.822Z,99417.38
2023-04-01T01:53:09.487Z,99413.88
2023-04-01T01:55:38.978Z,99413.00
2023-04-01T01:58:18.672Z,99413.84
2023-04-01T02:00:51.055Z,99416.44
2023-04-01T02:03:20.588Z,99416.44
2023-04-01T02:05:47.183Z,99414.69
2023-04-01T02:08:24.512Z,99420.84
2023-04-01T02:11:00.981Z,99419.06
2023-04-01T02:13:51.303Z,99422.53
2023-04-01T02:16:24.975Z,99420.75
2023-04-01T02:18:56.925Z,99421.69
2023-04-01T02:21:27.355Z,99422.44
2023-04-01T02:23:55.308Z,99424.22
2023-04-01T02:26:22.435Z,99419.91
2023-04-01T02:28:51.634Z,99425.06
2023-04-01T02:31:18.437Z,99418.97
2023-04-01T02:33:46.054Z,99430.31
2023-04-01T02:36:14.442Z,99425.06
2023-04-01T02:38:42.440Z,99428.63
2023-04-01T02:41:08.920Z,99425.06
2023-04-01T02:43:35.442Z,99422.53
2023-04-01T02:46:02.708Z,99432.06
2023-04-01T02:48:29.870Z,99435.53
2023-04-01T02:50:56.702Z,99432.06
2023-04-01T02:53:23.335Z,99432.16
2023-04-01T02:55:51.433Z,99440.94
2023-04-01T02:58:17.974Z,99443.47
2023-04-01T03:00:44.727Z,99438.34
2023-04-01T03:03:11.350Z,99446.19
2023-04-01T03:05:37.809Z,99442.69
2023-04-01T03:08:04.364Z,99445.31
2023-04-01T03:10:30.788Z,99446.25
2023-04-01T03:12:57.257Z,99448.94
2023-04-01T03:15:23.654Z,99455.97
2023-04-01T03:17:50.229Z,99449.97
2023-04-01T03:20:16.977Z,99456.06
2023-04-01T03:22:43.394Z,99454.38
2023-04-01T03:25:10.994Z,99457.84
2023-04-01T03:27:38.396Z,99448.28
2023-04-01T03:30:06.706Z,99454.38
2023-04-01T03:32:38.397Z,99448.19
2023-04-01T03:35:06.494Z,99457.75
2023-04-01T03:37:33.047Z,99455.97
2023-04-01T03:39:59.586Z,99462.03
2023-04-01T03:42:26.531Z,99462.03
2023-04-01T03:44:53.963Z,99461.22
2023-04-01T03:47:20.549Z,99464.66
2023-04-01T03:49:46.931Z,99462.97
2023-04-01T03:52:13.390Z,99465.59
2023-04-01T03:54:40.012Z,99467.38
2023-04-01T03:57:06.901Z,99471.69
2023-04-01T03:59:34.163Z,99476.06
2023-04-01T04:02:00.961Z,99473.47
2023-04-01T04:04:28.547Z,99475.22
2023-04-01T04:06:55.646Z,99474.38
2023-04-01T04:09:23.795Z,99477.84
2023-04-01T04:11:50.635Z,99480.47
2023-04-01T04:14:17.334Z,99483.09
2023-04-01T04:16:45.167Z,99485.72
2023-04-01T04:19:11.972Z,99483.09
2023-04-01T04:21:38.609Z,99489.25
2023-04-01T04:24:05.494Z,99492.81
2023-04-01T04:26:51.828Z,99490.19
2023-04-01T04:29:18.582Z,99498.03
2023-04-01T04:31:45.514Z,99491.97
2023-04-01T04:34:12.429Z,99494.56
2023-04-01T04:36:38.882Z,99502.44
2023-04-01T04:39:05.580Z,99505.97
2023-04-01T04:41:35.921Z,99509.50
2023-04-01T04:44:03.755Z,99506.03
2023-04-01T04:46:30.453Z,99503.41
2023-04-01T04:49:06.818Z,99507.81
2023-04-01T04:51:36.861Z,99519.13
2023-04-01T04:54:04.811Z,99514.75
2023-04-01T04:56:52.753Z,99520.81
2023-04-01T04:59:19.713Z,99521.75
2023-04-01T05:01:56.959Z,99524.38
2023-04-01T05:04:23.433Z,99530.44
2023-04-01T05:06:49.820Z,99527.84
2023-04-01T05:09:17.560Z,99533.06
2023-04-01T05:11:44.416Z,99536.63
2023-04-01T05:14:17.527Z,99535.00
2023-04-01T05:16:52.132Z,99549.25
2023-04-01T05:19:18.570Z,99547.13
2023-04-01T05:21:45.055Z,99550.13
2023-04-01T05:24:11.732Z,99553.97
2023-04-01T05:26:38.742Z,99549.81
2023-04-01T05:29:05.801Z,99557.03
2023-04-01T05:31:32.893Z,99571.19
2023-04-01T05:33:59.447Z,99569.59
2023-04-01T05:36:26.002Z,99568.03
2023-04-01T05:38:57.562Z,99578.88
2023-04-01T05:41:26.290Z,99578.22
2023-04-01T05:43:52.706Z,99584.63
2023-04-01T05:46:37.631Z,99587.38
2023-04-01T05:49:14.730Z,99592.94
2023-04-01T05:51:41.305Z,99584.44
2023-04-01T05:54:08.226Z,99604.78
2023-04-01T05:56:35.089Z,99604.09
2023-04-01T05:59:02.218Z,99609.41
2023-04-01T06:01:28.655Z,99616.47
2023-04-01T06:03:55.510Z,99617.53
2023-04-01T06:06:27.771Z,99623.75
2023-04-01T06:09:08.186Z,99623.88
2023-04-01T06:11:53.455Z,99630.13
2023-04-01T06:14:50.914Z,99631.88
2023-04-01T06:17:35.649Z,99637.03
2023-04-01T06:20:42.167Z,99638.72
2023-04-01T06:23:33.896Z,99635.09
2023-04-01T06:26:15.548Z,99648.19
2023-04-01T06:29:04.031Z,99650.88
2023-04-01T06:32:08.054Z,99651.09
2023-04-01T06:34:47.449Z,99651.38
2023-04-01T06:37:46.392Z,99664.72
2023-04-01T06:40:47.579Z,99669.16
2023-04-01T06:43:31.945Z,99670.00
2023-04-01T06:46:44.563Z,99674.25
2023-04-01T06:49:50.561Z,99687.19
2023-04-01T06:52:48.706Z,99695.88
2023-04-01T06:55:45.406Z,99686.34
2023-04-01T06:58:52.613Z,99686.28
2023-04-01T07:01:27.829Z,99692.50
2023-04-01T07:04:02.004Z,99695.16
2023-04-01T07:06:37.756Z,99708.22
2023-04-01T07:09:14.080Z,99714.34
2023-04-01T07:12:29.121Z,99711.97
2023-04-01T07:15:20.255Z,99721.75
2023-04-01T07:17:50.434Z,99733.28
2023-04-01T07:20:23.587Z,99733.31
2023-04-01T07:22:55.201Z,99739.47
2023-04-01T07:25:44.671Z,99742.06
2023-04-01T07:28:39.873Z,99743.25
2023-04-01T07:31:36.973Z,99751.09
2023-04-01T07:34:36.719Z,99756.38
2023-04-01T07:37:13.751Z,99759.84
2023-04-01T07:40:15.363Z,99758.34
2023-04-01T07:43:08.695Z,99772.06
2023-04-01T07:46:16.210Z,99770.19
2023-04-01T07:48:48.695Z,99786.88
2023-04-01T07:51:29.773Z,99788.56
2023-04-01T07:54:07.426Z,99789.81
2023-04-01T07:56:53.051Z,99782.13
2023-04-01T07:59:52.789Z,99786.28
2023-04-01T08:02:38.667Z,99800.19
2023-04-01T08:05:21.024Z,99801.78
2023-04-01T08:08:13.375Z,99811.06
2023-04-01T08:11:26.283Z,99811.97
2023-04-01T08:14:23.571Z,99818.47
2023-04-01T08:17:35.902Z,99826.13
2023-04-01T08:20:05.045Z,99826.84
2023-04-01T08:22:45.933Z,99831.13
2023-04-01T08:25:26.504Z,99830.44
2023-04-01T08:28:02.064Z,99833.00
2023-04-01T08:30:51.622Z,99852.78
2023-04-01T08:33:29.342Z,99855.28
2023-04-01T08:36:08.553Z,99852.56
2023-04-01T08:38:47.519Z,99849.94
2023-04-01T08:41:51.337Z,99854.97
2023-04-01T08:44:51.894Z,99863.41
2023-04-01T08:47:39.623Z,99865.88
2023-04-01T08:50:31.824Z,99875.00
2023-04-01T08:53:44.707Z,99883.00
2023-04-01T08:56:27.587Z,99876.19
2023-04-01T08:59:30.430Z,99887.47
2023-04-01T09:02:28.946Z,99878.75
2023-04-01T09:05:17.319Z,99889.50
2023-04-01T09:08:00.444Z,99887.31
2023-04-01T09:10:57.501Z,99898.56
2023-04-01T09:14:20.404Z,99897.72
2023-04-01T09:17:18.307Z,99901.19
2023-04-01T09:20:02.143Z,99915.38
2023-04-01T09:22:45.320Z,99904.38
2023-04-01T09:25:39.563Z,99909.72
2023-04-01T09:28:21.083Z,99923.50
2023-04-01T09:31:24.030Z,99918.41
2023-04-01T09:34:32.427Z,99933.13
2023-04-01T09:37:35.260Z,99936.25
2023-04-01T09:40:21.004Z,99937.78
2023-04-01T09:43:23.857Z,99937.63
2023-04-01T09:46:24.857Z,99945.16
2023-04-01T09:49:08.156Z,99947.63
2023-04-01T09:51:43.304Z,99951.56
2023-04-01T09:54:36.096Z,99951.88
2023-04-01T09:57:28.656Z,99959.50
2023-04-01T10:00:36.796Z,99969.13
2023-04-01T10:03:37.635Z,99957.69
2023-04-01T10:06:37.298Z,99976.63
2023-04-01T10:09:42.330Z,99974.09
2023-04-01T10:12:28.848Z,99980.19
2023-04-01T10:15:22.416Z,99982.09
2023-04-01T10:18:02.222Z,99978.78
2023-04-01T10:20:57.952Z,99976.63
2023-04-01T10:24:01.136Z,99987.78
2023-04-01T10:26:32.204Z,99991.84
2023-04-01T10:29:43.054Z,99996.44
2023-04-01T10:32:44.616Z,99998.53
2023-04-01T10:35:29.159Z,100002.25
2023-04-01T10:38:07.444Z,100001.16
2023-04-01T10:40:47.302Z,100010.47
2023-04-01T10:43:58.497Z,100015.38
2023-04-01T10:46:57.079Z,100020.81
2023-04-01T10:49:42.390Z,100020.22
2023-04-01T10:52:34.068Z,100019.38
2023-04-01T10:55:38.849Z,100021.38
2023-04-01T10:58:40.089Z,100031.84
2023-04-01T11:02:04.083Z,100034.06
2023-04-01T11:05:38.576Z,100044.91
2023-04-01T11:08:58.163Z,100051.78
2023-04-01T11:11:42.298Z,100050.94
2023-04-01T11:14:46.374Z,100050.31
2023-04-01T11:17:36.265Z,100057.78
2023-04-01T11:20:37.127Z,100055.16
2023-04-01T11:23:06.853Z,100068.22
2023-04-01T11:26:04.810Z,100073.63
2023-04-01T11:28:55.765Z,100079.94
2023-04-01T11:32:08.706Z,100085.22
2023-04-01T11:34:59.294Z,100075.59
2023-04-01T11:37:46.284Z,100082.78
2023-04-01T11:40:37.990Z,100097.78
2023-04-01T11:43:39.591Z,100101.34
2023-04-01T11:46:34.515Z,100101.28
2023-04-01T11:49:48.592Z,100112.66
2023-04-01T11:52:57.649Z,100107.50
2023-04-01T11:55:47.729Z,100119.53
2023-04-01T11:58:38.451Z,100111.97
2023-04-01T12:01:22.964Z,100116.53
2023-04-01T12:04:12.286Z,100124.84
2023-04-01T12:06:41.674Z,100134.44
2023-04-01T12:09:33.982Z,100138.59
2023-04-01T12:12:33.256Z,100145.56
2023-04-01T12:15:14.960Z,100149.84
2023-04-01T12:18:07.011Z,100148.59
2023-04-01T12:21:15.871Z,100167.19
2023-04-01T12:24:01.158Z,100171.53
2023-04-01T12:26:42.032Z,100169.91
2023-04-01T12:29:49.779Z,100176.09
2023-04-01T12:32:41.351Z,100177.19
2023-04-01T12:35:07.830Z,100187.91
2023-04-01T12:37:42.774Z,100188.00
2023-04-01T12:40:39.258Z,100195.03
2023-04-01T12:43:18.260Z,100196.25
2023-04-01T12:46:16.030Z,100199.72
2023-04-01T12:49:09.174Z,100208.56
2023-04-01T12:51:52.204Z,100211.28
2023-04-01T12:54:47.692Z,100216.53
2023-04-01T12:57:43.902Z,100223.00
2023-04-01T13:00:28.033Z,100236.22
2023-04-01T13:03:16.485Z,100239.56
2023-04-01T13:06:10.928Z,100247.44
2023-04-01T13:08:49.421Z,100240.75
2023-04-01T13:11:43.379Z,100242.84
2023-04-01T13:14:31.367Z,100255.94
2023-04-01T13:17:11.432Z,100260.13
2023-04-01T13:20:01.970Z,100262.56
2023-04-01T13:22:39.922Z,100273.13
2023-04-01T13:25:33.050Z,100255.94
2023-04-01T13:28:15.033Z,100278.44
2023-04-01T13:30:57.204Z,100289.03
2023-04-01T13:33:39.204Z,100289.81
2023-04-01T13:36:23.475Z,100298.44
2023-04-01T13:39:16.117Z,100292.28
2023-04-01T13:42:23.164Z,100295.56
2023-04-01T13:44:57.513Z,100298.06
2023-04-01T13:47:44.860Z,100304.78
2023-04-01T13:50:30.208Z,100304.81
2023-04-01T13:53:26.259Z,100313.50
2023-04-01T13:56:08.736Z,100321.66
2023-04-01T13:58:44.211Z,100320.97
2023-04-01T14:01:35.709Z,100327.94
2023-04-01T14:04:30.181Z,100335.66
2023-04-01T14:07:17.631Z,100331.13
2023-04-01T14:10:08.189Z,100343.09
2023-04-01T14:13:18.716Z,100342.53
2023-04-01T14:16:00.271Z,100349.44
2023-04-01T14:18:42.834Z,100353.06
2023-04-01T14:21:26.563Z,100361.94
2023-04-01T14:24:16.299Z,100360.31
2023-04-01T14:26:51.776Z,100362.69
2023-04-01T14:29:43.407Z,100370.34
2023-04-01T14:32:25.910Z,100376.63
2023-04-01T14:35:17.442Z,100373.25
2023-04-01T14:38:02.226Z,100376.03
2023-04-01T14:40:51.921Z,100382.09
2023-04-01T14:44:14.596Z,100381.34
2023-04-01T14:47:21.240Z,100390.06
2023-04-01T14:49:51.872Z,100393.66
2023-04-01T14:52:29.822Z,100397.34
2023-04-01T14:54:58.534Z,100407.81
2023-04-01T14:57:29.082Z,100412.16
2023-04-01T15:00:02.681Z,100407.81
2023-04-01T15:02:42.880Z,100419.19
2023-04-01T15:05:17.692Z,100416.56
2023-04-01T15:08:14.475Z,100419.13
2023-04-01T15:10:53.859Z,100432.16
2023-04-01T15:13:31.195Z,100431.34
2023-04-01T15:16:09.793Z,100434.69
2023-04-01T15:18:46.366Z,100443.53
2023-04-01T15:21:40.810Z,100448.78
2023-04-01T15:24:24.979Z,100452.38
2023-04-01T15:27:06.309Z,100468.03
2023-04-01T15:29:44.374Z,100462.78
2023-04-01T15:32:20.175Z,100471.31
2023-04-01T15:35:07.529Z,100474.75
2023-04-01T15:37:57.635Z,100482.63
2023-04-01T15:40:31.311Z,100482.75
2023-04-01T15:43:23.334Z,100490.81
2023-04-01T15:46:16.171Z,100494.50
2023-04-01T15:48:57.570Z,100500.78
2023-04-01T15:51:45.017Z,100499.22
2023-04-01T15:54:24.652Z,100499.31
2023-04-01T15:57:15.364Z,100512.25
2023-04-01T15:59:59.863Z,100519.00
2023-04-01T16:02:45.581Z,100522.47
2023-04-01T16:05:31.628Z,100531.09
2023-04-01T16:08:33.654Z,100531.94
2023-04-01T16:11:27.740Z,100537.09
2023-04-01T16:14:06.024Z,100538.00
2023-04-01T16:17:05.773Z,100545.16
2023-04-01T16:19:51.378Z,100553.19
2023-04-01T16:22:26.558Z,100548.00
2023-04-01T16:25:18.735Z,100560.97
2023-04-01T16:28:01.220Z,100558.34
2023-04-01T16:30:39.277Z,100567.88
2023-04-01T16:33:35.256Z,100565.31
2023-04-01T16:36:21.601Z,100580.09
2023-04-01T16:39:16.854Z,100586.09
2023-04-01T16:41:50.584Z,100585.34
2023-04-01T16:44:23.846Z,100595.03
2023-04-01T16:46:56.845Z,100607.28
2023-04-01T16:49:33.040Z,100610.78
2023-04-01T16:52:16.229Z,100617.78
2023-04-01T16:55:00.946Z,100623.03
2023-04-01T16:57:43.686Z,100630.94
2023-04-01T17:00:19.531Z,100643.31
2023-04-01T17:03:08.885Z,100647.81
2023-04-01T17:05:55.432Z,100651.25
2023-04-01T17:08:30.553Z,100667.69
2023-04-01T17:11:12.314Z,100665.28
2023-04-01T17:13:48.571Z,100669.78
2023-04-01T17:16:39.894Z,100681.94
2023-04-01T17:19:43.438Z,100678.41
2023-04-01T17:22:37.578Z,100694.00
2023-04-01T17:25:39.237Z,100712.25
2023-04-01T17:28:24.371Z,100702.72
2023-04-01T17:30:58.459Z,100722.66
2023-04-01T17:33:49.700Z,100718.47
2023-04-01T17:36:40.479Z,100726.31
2023-04-01T17:39:37.925Z,100725.44
2023-04-01T17:42:16.502Z,100734.16
2023-04-01T17:44:54.757Z,100736.03
2023-04-01T17:47:44.141Z,100744.66
2023-04-01T17:50:19.722Z,100749.75
2023-04-01T17:52:56.581Z,100755.78
2023-04-01T17:55:42.125Z,100756.66
2023-04-01T17:58:15.004Z,100758.41
2023-04-01T18:01:16.596Z,100768.81
2023-04-01T18:03:56.310Z,100774.91
2023-04-01T18:06:52.759Z,100784.50
2023-04-01T18:09:25.290Z,100789.00
2023-04-01T18:12:13.343Z,100800.28
2023-04-01T18:14:55.477Z,100807.25
2023-04-01T18:17:26.675Z,100812.56
2023-04-01T18:20:08.189Z,100821.25
2023-04-01T18:22:43.831Z,100819.63
2023-04-01T18:25:20.897Z,100831.72
2023-04-01T18:27:53.371Z,100846.44
2023-04-01T18:30:27.631Z,100841.22
2023-04-01T18:33:02.604Z,100857.69
2023-04-01T18:35:51.323Z,100859.41
2023-04-01T18:38:30.178Z,100874.09
2023-04-01T18:41:45.507Z,100871.56
2023-04-01T18:44:20.722Z,100883.78
2023-04-01T18:46:57.004Z,100893.38
2023-04-01T18:49:51.084Z,100889.13
2023-04-01T18:52:32.392Z,100901.28
2023-04-01T18:55:02.111Z,100913.41
2023-04-01T18:57:42.580Z,100905.59
2023-04-01T19:00:21.825Z,100910.75
2023-04-01T19:03:17.367Z,100917.72
2023-04-01T19:05:48.542Z,100923.78
2023-04-01T19:08:29.364Z,100933.25
2023-04-01T19:11:11.668Z,100929.78
2023-04-01T19:13:55.942Z,100934.94
2023-04-01T19:16:53.698Z,100939.25
2023-04-01T19:19:37.616Z,100948.78
2023-04-01T19:22:12.374Z,100960.00
2023-04-01T19:24:54.794Z,100957.44
2023-04-01T19:27:35.325Z,100965.28
2023-04-01T19:30:37.503Z,100967.91
2023-04-01T19:33:24.658Z,100969.66
2023-04-01T19:36:08.380Z,100968.84
2023-04-01T19:38:53.040Z,100980.97
2023-04-01T19:41:45.693Z,100984.38
2023-04-01T19:44:32.231Z,100990.41
2023-04-01T19:47:23.384Z,101000.81
2023-04-01T19:50:27.404Z,101008.69
2023-04-01T19:52:58.240Z,101007.91
2023-04-01T19:55:41.539Z,101023.56
2023-04-01T19:58:16.078Z,101025.38
2023-04-01T20:00:48.456Z,101034.09
2023-04-01T20:03:39.551Z,101035.84
2023-04-01T20:06:44.450Z,101048.84
2023-04-01T20:09:43.944Z,101060.16
2023-04-01T20:12:25.852Z,101061.91
2023-04-01T20:15:00.686Z,101067.13
2023-04-01T20:17:42.122Z,101072.31
2023-04-01T20:20:11.542Z,101073.22
2023-04-01T20:22:47.033Z,101084.44
2023-04-01T20:25:37.039Z,101086.19
2023-04-01T20:28:15.249Z,101090.56
2023-04-01T20:31:06.065Z,101101.81
2023-04-01T20:33:58.568Z,101106.97
2023-04-01T20:37:04.211Z,101118.25
2023-04-01T20:40:14.284Z,101121.69
2023-04-01T20:43:11.934Z,101121.69
2023-04-01T20:45:57.181Z,101126.06
2023-04-01T20:49:02.146Z,101134.72
2023-04-01T20:51:35.576Z,101132.16
2023-04-01T20:54:25.497Z,101136.47
2023-04-01T20:57:02.095Z,101147.75
2023-04-01T21:00:06.338Z,101149.47
2023-04-01T21:02:57.705Z,101158.13
2023-04-01T21:05:29.944Z,101163.31
2023-04-01T21:08:19.134Z,101168.53
2023-04-01T21:11:04.301Z,101170.25
2023-04-01T21:13:42.162Z,101172.00
2023-04-01T21:16:24.116Z,101174.56
2023-04-01T21:19:06.063Z,101189.25
2023-04-01T21:22:17.483Z,101191.00
2023-04-01T21:25:14.721Z,101197.06
2023-04-01T21:28:12.736Z,101200.50
2023-04-01T21:31:08.881Z,101206.56
2023-04-01T21:34:16.375Z,101209.16
2023-04-01T21:36:54.917Z,101212.59
2023-04-01T21:39:43.293Z,101210.00
2023-04-01T21:42:48.575Z,101221.22
2023-04-01T21:45:25.162Z,101220.34
2023-04-01T21:48:23.377Z,101233.31
2023-04-01T21:51:14.578Z,101235.91
2023-04-01T21:54:12.181Z,101235.91
2023-04-01T21:57:12.498Z,101246.28
2023-04-01T22:00:18.312Z,101249.72
2023-04-01T22:02:47.386Z,101252.31
2023-04-01T22:05:26.681Z,101251.44
2023-04-01T22:08:02.074Z,101254.03
2023-04-01T22:11:08.712Z,101260.94
2023-04-01T22:13:50.993Z,101270.44
2023-04-01T22:16:40.659Z,101272.16
2023-04-01T22:19:27.277Z,101273.03
2023-04-01T22:22:23.203Z,101281.66
2023-04-01T22:25:28.206Z,101293.75
2023-04-01T22:28:06.758Z,101298.09
2023-04-01T22:30:41.346Z,101295.50
2023-04-01T22:33:23.409Z,101309.28
2023-04-01T22:36:30.513Z,101318.75
2023-04-01T22:39:23.678Z,101312.72
2023-04-01T22:42:08.482Z,101321.34
2023-04-01T22:45:04.201Z,101331.72
2023-04-01T22:47:40.235Z,101334.25
2023-04-01T22:50:25.321Z,101338.59
2023-04-01T22:53:02.096Z,101341.16
2023-04-01T22:55:33.197Z,101345.50
2023-04-01T22:58:05.624Z,101353.25
2023-04-01T23:00:41.788Z,101350.66
2023-04-01T23:03:19.384Z,101355.00
2023-04-01T23:05:51.457Z,101360.16
2023-04-01T23:08:56.863Z,101371.34
2023-04-01T23:11:29.939Z,101374.00
2023-04-01T23:14:32.793Z,101375.66
2023-04-01T23:17:24.599Z,101380.84
2023-04-01T23:20:06.751Z,101389.47
2023-04-01T23:22:58.389Z,101393.81
2023-04-01T23:25:46.122Z,101402.44
2023-04-01T23:28:15.843Z,101402.44
2023-04-01T23:30:42.185Z,101404.13
2023-04-01T23:33:20.879Z,101404.97
2023-04-01T23:36:06.419Z,101409.31
2023-04-01T23:38:37.615Z,101412.75
2023-04-01T23:41:06.178Z,101415.34
2023-04-01T23:43:39.259Z,101425.72
2023-04-01T23:46:08.191Z,101426.56
2023-04-01T23:48:39.955Z,101430.88
2023-04-01T23:51:18.873Z,101441.25
2023-04-01T23:53:48.081Z,101438.66
2023-04-01T23:56:18.818Z,101448.97
2023-04-01T23:58:49.448Z,101442.84
